Time;durP1;ratioP1;P1;durP2;ratioP2;P2;SDS_P1;SDS_P2;PMS_P1;PMS_P2;Temp;Humidity;BMP_temperature;BMP_pressure;BME280_temperature;BME280_humidity;BME280_pressure;Samples;Min_cycle;Max_cycle;Signal;HPM_P1;HPM_P2
2024/03/04 00:00:16;;;;;;;34.90;22.65;;;;;;;10.44;100.00;99471.09;5090877;28;20051;-47
2024/03/04 00:02:44;;;;;;;37.42;23.17;;;;;;;10.13;100.00;99472.34;5091100;28;20044;-45
2024/03/04 00:05:13;;;;;;;36.40;24.33;;;;;;;10.22;100.00;99472.59;5090990;28;20044;-45
2024/03/04 00:07:41;;;;;;;38.65;22.77;;;;;;;10.28;100.00;99468.66;5090693;28;20086;-46
2024/03/04 00:10:11;;;;;;;37.72;24.25;;;;;;;10.11;100.00;99464.47;5090602;28;20050;-45
2024/03/04 00:12:40;;;;;;;40.58;24.60;;;;;;;10.03;100.00;99464.16;5090798;28;20458;-45
2024/03/04 00:15:09;;;;;;;39.10;23.73;;;;;;;10.15;100.00;99471.31;5090612;28;20052;-45
2024/03/04 00:17:37;;;;;;;38.25;23.80;;;;;;;10.06;100.00;99469.28;5090728;28;20052;-44
2024/03/04 00:20:08;;;;;;;37.13;24.05;;;;;;;10.06;100.00;99460.44;5090568;28;20048;-45
2024/03/04 00:22:37;;;;;;;38.97;24.42;;;;;;;10.10;100.00;99467.25;5090875;28;20047;-46
2024/03/04 00:25:06;;;;;;;46.42;24.85;;;;;;;10.19;100.00;99463.94;5090983;28;20109;-44
2024/03/04 00:27:36;;;;;;;38.55;24.15;;;;;;;10.03;100.00;99464.16;5090570;28;20044;-46
2024/03/04 00:30:06;;;;;;;36.55;23.73;;;;;;;10.15;100.00;99468.66;5090845;28;20106;-48
2024/03/04 00:32:34;;;;;;;35.78;23.50;;;;;;;10.18;100.00;99462.25;5090438;28;20088;-46
2024/03/04 00:35:03;;;;;;;41.72;24.02;;;;;;;9.98;100.00;99456.50;5090459;28;20408;-49
2024/03/04 00:37:32;;;;;;;41.45;24.40;;;;;;;10.09;100.00;99453.06;5090613;28;20047;-42
2024/03/04 00:40:00;;;;;;;36.33;23.33;;;;;;;10.11;100.00;99447.63;5093242;28;20047;-45
2024/03/04 00:42:29;;;;;;;38.03;22.55;;;;;;;10.12;100.00;99452.84;5094591;28;20447;-47
2024/03/04 00:44:58;;;;;;;35.42;23.23;;;;;;;10.08;100.00;99458.53;5095072;28;20473;-45
2024/03/04 00:47:27;;;;;;;37.35;23.65;;;;;;;10.07;100.00;99460.34;5094662;28;20048;-44
2024/03/04 00:49:55;;;;;;;38.10;23.60;;;;;;;10.02;100.00;99454.47;5094275;28;20514;-45
2024/03/04 00:52:23;;;;;;;36.33;22.65;;;;;;;10.08;100.00;99458.53;5094689;28;20090;-45
2024/03/04 00:54:52;;;;;;;38.17;23.33;;;;;;;9.98;100.00;99460.97;5094271;28;20765;-46
2024/03/04 00:57:21;;;;;;;37.10;22.63;;;;;;;9.73;100.00;99456.50;5094939;28;20044;-45
2024/03/04 00:59:49;;;;;;;39.67;22.80;;;;;;;9.83;100.00;99470.03;5094201;28;20049;-44
2024/03/04 01:02:19;;;;;;;39.28;24.08;;;;;;;9.78;100.00;99461.53;5094355;28;20044;-44
2024/03/04 01:04:48;;;;;;;37.53;23.60;;;;;;;9.88;100.00;99463.44;5094262;28;20065;-45
2024/03/04 01:07:17;;;;;;;39.28;23.73;;;;;;;9.90;100.00;99471.31;5094317;28;20130;-48
2024/03/04 01:09:50;;;;;;;34.13;23.10;;;;;;;9.72;100.00;99463.63;5094085;28;20131;-45
2024/03/04 01:12:19;;;;;;;35.28;23.08;;;;;;;9.72;100.00;99463.63;5094232;28;20086;-46
2024/03/04 01:14:47;;;;;;;38.33;23.67;;;;;;;9.56;100.00;99463.00;5093950;28;20048;-46
2024/03/04 01:17:16;;;;;;;36.00;23.17;;;;;;;9.44;100.00;99462.00;5094252;28;20055;-47
2024/03/04 01:19:47;;;;;;;37.88;22.17;;;;;;;9.49;100.00;99467.03;5093979;28;20063;-46
2024/03/04 01:22:17;;;;;;;35.05;22.77;;;;;;;9.42;100.00;99465.75;5094030;28;20044;-46
2024/03/04 01:24:49;;;;;;;36.00;22.42;;;;;;;9.11;100.00;99467.81;5093837;28;20182;-46
2024/03/04 01:27:20;;;;;;;35.42;22.25;;;;;;;9.16;100.00;99467.47;5093628;28;20400;-49
2024/03/04 01:29:48;;;;;;;38.67;22.85;;;;;;;9.30;100.00;99463.91;5093663;28;20044;-47
2024/03/04 01:32:17;;;;;;;35.70;21.85;;;;;;;9.32;100.00;99465.50;5093882;28;20131;-45
2024/03/04 01:34:48;;;;;;;36.83;22.85;;;;;;;9.33;100.00;99461.03;5093595;28;20180;-46
2024/03/04 01:37:17;;;;;;;34.40;22.75;;;;;;;9.46;100.00;99467.25;5093692;28;20048;-46
2024/03/04 01:39:45;;;;;;;36.08;22.70;;;;;;;9.36;100.00;99460.81;5093526;28;20063;-45
2024/03/04 01:42:13;;;;;;;38.60;23.80;;;;;;;9.26;100.00;99459.75;5093808;28;20056;-46
2024/03/04 01:44:42;;;;;;;36.15;23.20;;;;;;;9.26;100.00;99455.25;5093879;28;20255;-46
2024/03/04 01:47:14;;;;;;;37.97;22.92;;;;;;;9.18;100.00;99461.13;5092222;28;20048;-47
2024/03/04 01:49:43;;;;;;;39.20;24.17;;;;;;;9.11;100.00;99457.16;5093322;28;20052;-45
2024/03/04 01:52:14;;;;;;;42.92;23.65;;;;;;;9.29;100.00;99462.22;5093290;28;20052;-47
2024/03/04 01:54:46;;;;;;;36.95;22.30;;;;;;;9.32;100.00;99459.34;5092991;28;20055;-47
2024/03/04 01:57:17;;;;;;;38.83;22.90;;;;;;;9.36;100.00;99460.81;5093324;28;20051;-47
2024/03/04 01:59:47;;;;;;;35.90;22.50;;;;;;;9.42;100.00;99465.75;5093203;28;20059;-47
2024/03/04 02:02:17;;;;;;;35.55;22.80;;;;;;;9.42;100.00;99471.06;5093165;28;20055;-45
2024/03/04 02:04:46;;;;;;;36.30;22.55;;;;;;;9.27;100.00;99466.78;5093131;28;20048;-48
2024/03/04 02:07:17;;;;;;;35.00;22.20;;;;;;;9.07;100.00;99460.13;5092947;28;20063;-47
2024/03/04 02:09:47;;;;;;;37.13;23.55;;;;;;;9.15;100.00;99457.78;5093169;28;20416;-46
2024/03/04 02:12:15;;;;;;;36.42;23.33;;;;;;;9.24;100.00;99461.66;5093018;28;20104;-47
2024/03/04 02:14:44;;;;;;;37.72;23.13;;;;;;;9.37;100.00;99467.88;5092832;28;20044;-47
2024/03/04 02:17:13;;;;;;;33.92;22.55;;;;;;;9.35;100.00;99462.63;5093047;28;20044;-45
2024/03/04 02:19:41;;;;;;;37.47;22.50;;;;;;;9.16;100.00;99460.34;5092920;28;20386;-45
2024/03/04 02:22:11;;;;;;;42.45;22.58;;;;;;;9.12;100.00;99458.88;5092872;28;20055;-47
2024/03/04 02:24:41;;;;;;;33.30;22.02;;;;;;;9.21;100.00;99459.22;5092793;28;20098;-46
2024/03/04 02:27:09;;;;;;;36.65;22.92;;;;;;;9.25;100.00;99464.22;5093137;28;20102;-47
2024/03/04 02:29:37;;;;;;;37.35;22.33;;;;;;;9.21;100.00;99462.72;5092440;28;20461;-46
2024/03/04 02:32:07;;;;;;;38.15;21.90;;;;;;;9.19;100.00;99464.63;5092332;28;20047;-45
2024/03/04 02:34:35;;;;;;;37.72;22.75;;;;;;;9.23;100.00;99470.59;5092529;28;20048;-48
2024/03/04 02:37:04;;;;;;;45.97;23.63;;;;;;;9.22;100.00;99463.56;5092744;28;20059;-45
2024/03/04 02:39:33;;;;;;;35.83;23.45;;;;;;;9.31;100.00;99468.28;5092473;28;20093;-46
2024/03/04 02:42:03;;;;;;;32.33;21.65;;;;;;;9.12;100.00;99461.53;5092735;28;20373;-48
2024/03/04 02:44:32;;;;;;;37.13;21.25;;;;;;;8.97;100.00;99470.50;5092361;28;20393;-47
2024/03/04 02:47:00;;;;;;;34.22;21.63;;;;;;;9.03;100.00;99464.78;5092440;28;20048;-46
2024/03/04 02:49:30;;;;;;;32.78;21.38;;;;;;;8.87;100.00;99464.09;5092199;28;20131;-46
2024/03/04 02:51:58;;;;;;;37.58;22.50;;;;;;;8.93;100.00;99468.16;5092241;28;20416;-46
2024/03/04 02:54:27;;;;;;;34.38;22.50;;;;;;;8.96;100.00;99478.59;5092004;28;20091;-47
2024/03/04 02:56:56;;;;;;;34.42;21.27;;;;;;;9.04;100.00;99471.81;5092031;28;20059;-46
2024/03/04 02:59:26;;;;;;;38.85;23.27;;;;;;;8.96;100.00;99467.94;5091893;28;20056;-45
2024/03/04 03:01:54;;;;;;;36.25;22.23;;;;;;;8.85;100.00;99468.66;5091611;28;20504;-46
2024/03/04 03:04:24;;;;;;;36.25;21.70;;;;;;;8.90;100.00;99469.22;5092074;28;20500;-46
2024/03/04 03:06:52;;;;;;;33.28;21.45;;;;;;;8.87;100.00;99467.59;5092174;28;20357;-46
2024/03/04 03:09:21;;;;;;;33.40;21.90;;;;;;;8.91;100.00;99472.75;5093257;28;20059;-46
2024/03/04 03:11:49;;;;;;;36.13;23.20;;;;;;;8.82;100.00;99474.19;5095357;28;20075;-45
2024/03/04 03:14:18;;;;;;;34.50;21.67;;;;;;;8.77;100.00;99469.16;5092169;28;20193;-48
2024/03/04 03:16:49;;;;;;;36.97;23.05;;;;;;;8.74;100.00;99482.66;5091895;28;20178;-45
2024/03/04 03:19:23;;;;;;;38.40;23.23;;;;;;;8.94;100.00;99483.16;5091687;28;20090;-46
2024/03/04 03:21:52;;;;;;;37.53;23.35;;;;;;;8.87;100.00;99485.38;5091628;28;20047;-46
2024/03/04 03:24:20;;;;;;;35.75;21.73;;;;;;;8.88;100.00;99481.78;5091676;28;20452;-45
2024/03/04 03:26:48;;;;;;;37.33;22.23;;;;;;;8.77;100.00;99479.78;5091373;28;20074;-46
2024/03/04 03:29:17;;;;;;;38.42;23.52;;;;;;;8.74;100.00;99468.50;5091774;28;20055;-46
2024/03/04 03:31:46;;;;;;;34.88;22.52;;;;;;;8.69;100.00;99470.63;5091454;28;20040;-47
2024/03/04 03:34:15;;;;;;;38.85;22.42;;;;;;;8.80;100.00;99468.97;5091514;28;20055;-47
2024/03/04 03:36:45;;;;;;;38.22;21.48;;;;;;;8.86;100.00;99467.69;5091337;28;20050;-47
2024/03/04 03:39:14;;;;;;;35.55;22.63;;;;;;;8.91;100.00;99472.75;5091078;28;20489;-46
2024/03/04 03:41:42;;;;;;;40.85;22.92;;;;;;;8.92;100.00;99464.66;5091487;28;20044;-48
2024/03/04 03:44:10;;;;;;;39.10;22.80;;;;;;;8.95;100.00;99469.75;5091487;28;20456;-45
2024/03/04 03:46:39;;;;;;;34.40;20.95;;;;;;;8.97;100.00;99473.16;5091159;28;20058;-46
2024/03/04 03:49:07;;;;;;;33.50;21.02;;;;;;;8.99;100.00;99468.63;5091116;28;20426;-45
2024/03/04 03:51:39;;;;;;;34.58;20.80;;;;;;;8.85;100.00;99471.31;5090890;28;20523;-46
2024/03/04 03:54:07;;;;;;;33.75;21.33;;;;;;;8.94;100.00;99480.50;5091146;28;20055;-46
2024/03/04 03:56:40;;;;;;;34.70;21.90;;;;;;;8.81;100.00;99483.13;5091143;28;20067;-47
2024/03/04 03:59:09;;;;;;;34.17;21.52;;;;;;;8.79;100.00;99477.06;5091095;28;20088;-46
2024/03/04 04:01:38;;;;;;;34.70;22.17;;;;;;;8.86;100.00;99473.88;5091002;28;20420;-48
2024/03/04 04:04:07;;;;;;;35.00;20.70;;;;;;;8.89;100.00;99478.16;5090856;28;20059;-45
2024/03/04 04:06:35;;;;;;;32.10;20.65;;;;;;;8.79;100.00;99469.09;5091131;28;20111;-45
2024/03/04 04:09:05;;;;;;;34.63;22.23;;;;;;;8.87;100.00;99474.72;5091193;28;20047;-46
2024/03/04 04:11:33;;;;;;;33.92;20.90;;;;;;;8.86;100.00;99473.03;5090823;28;20051;-46
2024/03/04 04:14:02;;;;;;;37.42;22.55;;;;;;;8.83;100.00;99470.56;5090093;28;20076;-47
2024/03/04 04:16:30;;;;;;;33.67;21.48;;;;;;;8.83;100.00;99476.75;5090765;28;20056;-45
2024/03/04 04:18:59;;;;;;;32.60;20.58;;;;;;;8.81;100.00;99476.00;5090896;28;20124;-46
2024/03/04 04:21:27;;;;;;;32.28;21.55;;;;;;;8.77;100.00;99479.78;5090518;28;20059;-46
2024/03/04 04:23:59;;;;;;;35.95;21.30;;;;;;;8.61;100.00;99479.09;5090666;28;20071;-46
2024/03/04 04:26:28;;;;;;;38.00;21.75;;;;;;;8.67;100.00;99477.84;5090829;28;20079;-46
2024/03/04 04:28:57;;;;;;;36.92;22.05;;;;;;;8.68;100.00;99472.41;5090320;28;20062;-47
2024/03/04 04:31:25;;;;;;;35.53;21.55;;;;;;;8.51;100.00;99475.31;5090507;28;20056;-46
2024/03/04 04:33:54;;;;;;;40.13;23.38;;;;;;;8.39;100.00;99474.28;5090681;28;20044;-47
2024/03/04 04:36:22;;;;;;;34.75;22.77;;;;;;;8.51;100.00;99472.66;5090252;28;20062;-45
2024/03/04 04:38:50;;;;;;;36.53;22.60;;;;;;;8.56;100.00;99475.88;5090646;28;20135;-45
2024/03/04 04:41:18;;;;;;;32.25;21.13;;;;;;;8.63;100.00;99476.34;5090453;28;20052;-46
2024/03/04 04:43:48;;;;;;;38.72;23.50;;;;;;;8.49;100.00;99486.06;5091152;28;20139;-45
2024/03/04 04:46:16;;;;;;;38.78;22.65;;;;;;;8.46;100.00;99485.38;5090456;28;20430;-45
2024/03/04 04:48:45;;;;;;;40.47;23.05;;;;;;;8.40;100.00;99481.31;5090563;28;20044;-48
2024/03/04 04:51:13;;;;;;;36.05;20.88;;;;;;;8.29;100.00;99476.63;5090228;28;20115;-45
2024/03/04 04:53:41;;;;;;;37.75;22.73;;;;;;;8.36;100.00;99485.09;5090014;28;20640;-46
2024/03/04 04:56:17;;;;;;;36.05;22.88;;;;;;;8.38;100.00;99483.19;5090378;28;20048;-46
2024/03/04 04:58:45;;;;;;;38.45;23.20;;;;;;;8.47;100.00;99498.56;5091162;28;20071;-46
2024/03/04 05:01:25;;;;;;;38.40;22.80;;;;;;;8.41;100.00;99488.34;5092498;28;20140;-46
2024/03/04 05:03:53;;;;;;;41.03;23.55;;;;;;;8.27;100.00;99493.63;5092229;28;20113;-46
2024/03/04 05:06:41;;;;;;;36.40;22.70;;;;;;;8.32;100.00;99495.06;5090090;28;20055;-45
2024/03/04 05:09:10;;;;;;;38.15;23.67;;;;;;;8.36;100.00;99495.75;5090297;28;20054;-45
2024/03/04 05:11:39;;;;;;;35.22;21.92;;;;;;;8.48;100.00;99494.94;5090238;28;20060;-46
2024/03/04 05:14:09;;;;;;;37.22;22.05;;;;;;;8.54;100.00;99504.34;5090251;28;20080;-46
2024/03/04 05:16:39;;;;;;;37.17;23.48;;;;;;;8.55;100.00;99517.53;5090090;28;20050;-46
2024/03/04 05:19:07;;;;;;;38.22;22.55;;;;;;;8.62;100.00;99522.47;5090000;28;20054;-48
2024/03/04 05:21:35;;;;;;;42.63;22.88;;;;;;;8.38;100.00;99511.59;5089796;28;20064;-44
2024/03/04 05:24:04;;;;;;;37.40;22.15;;;;;;;8.25;100.00;99516.78;5090245;28;20079;-46
2024/03/04 05:26:32;;;;;;;35.28;22.85;;;;;;;8.40;100.00;99523.84;5093550;28;20473;-48
2024/03/04 05:29:01;;;;;;;34.45;21.70;;;;;;;8.44;100.00;99522.69;5093898;28;20071;-44
2024/03/04 05:31:29;;;;;;;39.38;22.45;;;;;;;8.40;100.00;99529.16;5092421;28;20040;-48
2024/03/04 05:33:59;;;;;;;40.17;22.83;;;;;;;8.23;100.00;99521.34;5093771;28;20174;-44
2024/03/04 05:36:28;;;;;;;34.65;21.60;;;;;;;8.30;100.00;99528.00;5093869;28;20044;-47
2024/03/04 05:38:56;;;;;;;35.38;22.48;;;;;;;8.48;100.00;99536.63;5093916;28;20079;-46
2024/03/04 05:41:25;;;;;;;37.30;21.85;;;;;;;8.44;100.00;99535.13;5093727;28;20048;-47
2024/03/04 05:43:53;;;;;;;38.38;21.85;;;;;;;8.45;100.00;99535.03;5093772;28;20066;-45
2024/03/04 05:46:21;;;;;;;38.78;22.80;;;;;;;8.44;100.00;99541.28;5093515;28;20046;-46
2024/03/04 05:48:50;;;;;;;41.38;23.17;;;;;;;8.38;100.00;99535.50;5093732;28;20538;-45
2024/03/04 05:51:19;;;;;;;40.17;23.85;;;;;;;8.35;100.00;99536.56;5093604;28;20148;-45
2024/03/04 05:53:48;;;;;;;39.08;23.83;;;;;;;8.25;100.00;99538.03;5093401;28;20566;-47
2024/03/04 05:56:16;;;;;;;40.00;23.70;;;;;;;8.49;100.00;99543.66;5093684;28;20052;-47
2024/03/04 05:58:45;;;;;;;38.95;24.08;;;;;;;8.52;100.00;99549.66;5093809;28;20044;-45
2024/03/04 06:01:15;;;;;;;42.38;23.73;;;;;;;8.54;100.00;99547.75;5093129;28;20066;-47
2024/03/04 06:03:43;;;;;;;36.55;23.77;;;;;;;8.45;100.00;99553.63;5093534;28;20188;-45
2024/03/04 06:06:12;;;;;;;38.88;22.85;;;;;;;8.53;100.00;99548.69;5093356;28;20059;-46
2024/03/04 06:08:42;;;;;;;38.75;22.42;;;;;;;8.82;100.00;99553.97;5092848;28;20048;-45
2024/03/04 06:11:10;;;;;;;39.03;21.85;;;;;;;8.89;100.00;99553.47;5092819;28;20056;-46
2024/03/04 06:13:38;;;;;;;30.27;20.13;;;;;;;8.52;100.00;99552.31;5092960;28;20066;-46
2024/03/04 06:16:07;;;;;;;31.50;20.60;;;;;;;8.74;100.00;99553.59;5093442;28;20158;-47
2024/03/04 06:18:35;;;;;;;34.35;21.52;;;;;;;8.58;100.00;99554.56;5092991;28;20048;-46
2024/03/04 06:21:06;;;;;;;33.13;20.60;;;;;;;8.70;100.00;99552.09;5092661;28;20471;-44
2024/03/04 06:23:35;;;;;;;32.67;20.40;;;;;;;8.64;100.00;99555.13;5092664;28;20113;-47
2024/03/04 06:26:09;;;;;;;32.30;20.20;;;;;;;8.55;100.00;99551.25;5092366;28;20047;-47
2024/03/04 06:28:37;;;;;;;34.53;20.52;;;;;;;8.50;100.00;99553.34;5092608;28;20043;-47
2024/03/04 06:31:06;;;;;;;33.42;20.85;;;;;;;8.76;100.00;99557.00;5092364;28;20504;-47
2024/03/04 06:33:35;;;;;;;36.72;21.65;;;;;;;9.03;100.00;99549.91;5092416;28;20071;-48
2024/03/04 06:36:20;;;;;;;37.60;22.48;;;;;;;9.28;100.00;99545.66;5091802;28;20050;-47
2024/03/04 06:38:50;;;;;;;33.05;21.00;;;;;;;9.06;100.00;99549.72;5092881;28;20515;-49
2024/03/04 06:41:20;;;;;;;32.50;21.30;;;;;;;8.96;100.00;99559.25;5092392;28;20413;-45
2024/03/04 06:43:48;;;;;;;34.67;20.90;;;;;;;9.07;100.00;99546.13;5090006;28;20082;-45
2024/03/04 06:46:16;;;;;;;31.30;20.42;;;;;;;9.02;100.00;99545.56;5092504;28;20470;-47
2024/03/04 06:48:44;;;;;;;36.13;20.65;;;;;;;8.89;100.00;99545.50;5092365;28;20047;-45
2024/03/04 06:51:13;;;;;;;32.92;20.48;;;;;;;9.03;100.00;99541.09;5092289;28;20454;-47
2024/03/04 06:53:42;;;;;;;32.63;20.55;;;;;;;8.92;100.00;99556.91;5092334;28;20048;-46
2024/03/04 06:56:12;;;;;;;28.88;19.58;;;;;;;9.21;100.00;99550.53;5092503;28;20140;-45
2024/03/04 06:58:41;;;;;;;31.48;20.80;;;;;;;9.48;100.00;99558.50;5092131;28;20054;-46
2024/03/04 07:01:10;;;;;;;35.35;20.77;;;;;;;9.22;100.00;99554.03;5091981;28;20499;-47
2024/03/04 07:03:43;;;;;;;31.80;20.17;;;;;;;9.44;100.00;99554.31;5092013;28;20493;-45
2024/03/04 07:06:13;;;;;;;33.87;20.93;;;;;;;9.60;100.00;99565.66;5091764;28;20562;-45
2024/03/04 07:08:41;;;;;;;34.53;20.63;;;;;;;9.93;100.00;99567.00;5091854;28;20055;-45
2024/03/04 07:11:10;;;;;;;30.30;19.00;;;;;;;9.99;100.00;99563.91;5092041;28;20431;-46
2024/03/04 07:13:38;;;;;;;29.17;18.42;;;;;;;9.79;100.00;99564.44;5091820;28;20055;-47
2024/03/04 07:16:08;;;;;;;32.13;19.38;;;;;;;9.94;100.00;99564.25;5092164;28;20128;-45
2024/03/04 07:18:36;;;;;;;30.33;19.58;;;;;;;10.26;100.00;99574.53;5092276;28;20079;-46
2024/03/04 07:21:05;;;;;;;29.83;19.08;;;;;;;10.51;100.00;99576.31;5096391;28;20435;-47
2024/03/04 07:23:34;;;;;;;29.15;18.52;;;;;;;10.48;100.00;99568.53;5091984;28;20058;-45
2024/03/04 07:26:05;;;;;;;28.52;18.90;;;;;;;10.36;100.00;99569.41;5091565;28;20409;-45
2024/03/04 07:28:34;;;;;;;30.10;18.33;;;;;;;10.60;100.00;99565.00;5091666;28;20051;-45
2024/03/04 07:31:03;;;;;;;26.60;17.75;;;;;;;10.57;100.00;99573.22;5091664;28;20072;-45
2024/03/04 07:33:32;;;;;;;30.63;18.25;;;;;;;10.40;100.00;99574.41;5091783;28;20078;-44
2024/03/04 07:36:01;;;;;;;27.75;17.00;;;;;;;10.45;100.00;99580.28;5091654;28;20052;-48
2024/03/04 07:38:29;;;;;;;28.75;16.70;;;;;;;10.62;100.00;99579.09;5091575;28;20494;-45
2024/03/04 07:40:58;;;;;;;30.27;17.20;;;;;;;10.82;100.00;99573.19;5091596;28;20123;-47
2024/03/04 07:43:26;;;;;;;28.45;16.48;;;;;;;10.98;100.00;99577.41;5091747;28;20136;-46
2024/03/04 07:46:00;;;;;;;25.35;16.23;;;;;;;10.79;100.00;99567.19;5091639;28;20044;-44
2024/03/04 07:48:28;;;;;;;26.33;16.85;;;;;;;10.72;100.00;99572.16;5091165;28;20123;-44
2024/03/04 07:50:58;;;;;;;25.23;15.73;;;;;;;10.92;100.00;99568.03;5091295;28;20051;-45
2024/03/04 07:53:26;;;;;;;30.20;16.42;;;;;;;11.17;100.00;99564.41;5091398;28;20524;-45
2024/03/04 07:55:55;;;;;;;27.95;16.40;;;;;;;11.30;100.00;99577.75;5090949;28;20052;-44
2024/03/04 07:58:23;;;;;;;24.63;16.08;;;;;;;11.56;100.00;99570.44;5090970;28;20056;-45
2024/03/04 08:00:51;;;;;;;26.05;16.23;;;;;;;11.54;100.00;99577.72;5091160;28;20044;-45
2024/03/04 08:03:20;;;;;;;29.00;16.05;;;;;;;11.51;100.00;99584.16;5090720;28;20550;-45
2024/03/04 08:05:49;;;;;;;29.25;16.77;;;;;;;11.09;100.00;99585.47;5091320;28;20404;-45
2024/03/04 08:08:19;;;;;;;26.20;16.55;;;;;;;11.38;100.00;99586.00;5091061;28;20055;-46
2024/03/04 08:10:50;;;;;;;24.70;16.58;;;;;;;11.60;100.00;99585.28;5091026;28;20047;-46
2024/03/04 08:13:19;;;;;;;33.70;17.58;;;;;;;11.65;100.00;99580.44;5091137;28;20048;-45
2024/03/04 08:15:48;;;;;;;27.10;16.23;;;;;;;11.64;100.00;99576.06;5091211;28;20381;-46
2024/03/04 08:18:16;;;;;;;29.27;17.65;;;;;;;11.74;100.00;99577.06;5091037;28;20040;-45
2024/03/04 08:20:45;;;;;;;25.85;16.75;;;;;;;11.89;100.00;99586.66;5090929;28;20135;-45
2024/03/04 08:23:13;;;;;;;30.75;17.88;;;;;;;12.01;100.00;99588.38;5090842;28;20503;-45
2024/03/04 08:25:42;;;;;;;29.35;17.02;;;;;;;12.00;100.00;99593.84;5091210;28;20047;-48
2024/03/04 08:28:11;;;;;;;26.42;16.98;;;;;;;11.94;100.00;99588.94;5091455;28;20400;-43
2024/03/04 08:30:55;;;;;;;28.42;17.85;;;;;;;12.08;100.00;99594.09;5090857;28;20051;-45
2024/03/04 08:33:23;;;;;;;32.53;17.70;;;;;;;12.29;100.00;99595.13;5090410;28;20044;-46
2024/03/04 08:35:51;;;;;;;29.10;17.40;;;;;;;12.48;100.00;99597.22;5090408;28;20052;-46
2024/03/04 08:38:19;;;;;;;27.63;16.83;;;;;;;12.22;100.00;99588.53;5090698;28;20382;-44
2024/03/04 08:40:49;;;;;;;23.63;16.20;;;;;;;12.17;100.00;99590.72;5090189;28;20108;-45
2024/03/04 08:43:17;;;;;;;29.75;17.40;;;;;;;12.33;100.00;99595.72;5090115;28;20432;-44
2024/03/04 08:45:45;;;;;;;27.85;17.23;;;;;;;12.47;100.00;99587.47;5090538;28;20070;-46
2024/03/04 08:48:13;;;;;;;25.95;17.40;;;;;;;12.55;100.00;99593.09;5090635;28;20080;-44
2024/03/04 08:50:41;;;;;;;25.73;16.83;;;;;;;12.67;100.00;99590.41;5089786;28;20051;-44
2024/03/04 08:53:11;;;;;;;29.50;17.63;;;;;;;12.77;100.00;99588.72;5089946;28;20044;-45
2024/03/04 08:55:39;;;;;;;31.42;17.30;;;;;;;12.96;100.00;99588.94;5090294;28;20056;-45
2024/03/04 08:58:09;;;;;;;28.80;17.33;;;;;;;12.88;100.00;99588.69;5090534;28;20131;-45
2024/03/04 09:00:38;;;;;;;28.25;18.15;;;;;;;12.92;100.00;99582.09;5092788;28;20048;-45
2024/03/04 09:03:07;;;;;;;25.90;17.75;;;;;;;12.92;100.00;99587.47;5094385;28;20113;-43
2024/03/04 09:05:36;;;;;;;24.02;15.52;;;;;;;13.01;100.00;99586.72;5094508;28;20127;-44
2024/03/04 09:08:04;;;;;;;30.67;17.63;;;;;;;12.76;100.00;99593.22;5094738;28;20099;-43
2024/03/04 09:10:32;;;;;;;30.10;17.33;;;;;;;12.52;100.00;99593.31;5094129;28;20063;-44
2024/03/04 09:13:03;;;;;;;31.52;16.15;;;;;;;12.53;100.00;99591.47;5094150;28;20056;-47
2024/03/04 09:15:32;;;;;;;29.50;17.13;;;;;;;12.79;100.00;99590.28;5093832;28;20040;-46
2024/03/04 09:18:01;;;;;;;24.40;15.52;;;;;;;12.90;100.00;99592.09;5093998;28;20043;-46
2024/03/04 09:20:29;;;;;;;28.67;17.15;;;;;;;13.07;100.00;99582.72;5093550;28;20113;-45
2024/03/04 09:22:57;;;;;;;24.08;16.00;;;;;;;13.16;100.00;99588.16;5093297;28;20044;-45
2024/03/04 09:25:25;;;;;;;24.92;15.60;;;;;;;13.09;100.00;99589.63;5093242;28;20097;-45
2024/03/04 09:27:54;;;;;;;28.60;16.25;;;;;;;12.80;100.00;99588.44;5093069;28;20134;-45
2024/03/04 09:30:23;;;;;;;26.23;15.90;;;;;;;12.66;100.00;99596.75;5093991;28;20055;-43
2024/03/04 09:32:55;;;;;;;24.85;15.18;;;;;;;12.93;100.00;99593.66;5095078;28;20131;-47
2024/03/04 09:35:23;;;;;;;26.35;15.85;;;;;;;12.81;100.00;99593.69;5094861;28;20400;-46
2024/03/04 09:37:52;;;;;;;26.42;16.90;;;;;;;12.65;100.00;99595.03;5093514;28;20423;-45
2024/03/04 09:40:21;;;;;;;25.30;15.82;;;;;;;12.88;100.00;99589.53;5093770;28;20052;-44
2024/03/04 09:42:50;;;;;;;26.77;16.33;;;;;;;13.07;100.00;99586.25;5093348;28;20051;-47
2024/03/04 09:45:19;;;;;;;24.92;14.95;;;;;;;13.13;100.00;99591.09;5093490;28;20040;-45
2024/03/04 09:47:51;;;;;;;28.48;15.65;;;;;;;13.11;100.00;99587.69;5093823;28;20094;-46
2024/03/04 09:50:22;;;;;;;25.27;15.93;;;;;;;13.38;100.00;99586.44;5093395;28;20370;-47
2024/03/04 09:52:51;;;;;;;25.88;16.05;;;;;;;13.57;100.00;99583.94;5093593;28;20044;-46
2024/03/04 09:55:19;;;;;;;27.42;15.65;;;;;;;13.73;100.00;99589.75;5092849;28;20486;-47
2024/03/04 09:57:50;;;;;;;24.95;15.30;;;;;;;13.63;100.00;99582.59;5093071;28;20483;-47
2024/03/04 10:00:19;;;;;;;24.30;14.93;;;;;;;13.48;100.00;99584.72;5092572;28;20043;-47
2024/03/04 10:02:48;;;;;;;25.75;15.75;;;;;;;13.41;100.00;99581.69;5092634;28;20094;-47
2024/03/04 10:05:17;;;;;;;23.77;14.95;;;;;;;13.21;100.00;99584.28;5093164;28;20443;-45
2024/03/04 10:07:49;;;;;;;23.30;15.57;;;;;;;13.45;100.00;99580.47;5092771;28;20051;-47
2024/03/04 10:10:17;;;;;;;28.27;16.45;;;;;;;13.84;100.00;99590.66;5092905;28;20397;-45
2024/03/04 10:12:46;;;;;;;27.98;15.75;;;;;;;13.74;100.00;99591.44;5091397;28;20086;-46
2024/03/04 10:15:16;;;;;;;26.98;16.20;;;;;;;14.02;100.00;99584.59;5092894;28;20055;-47
2024/03/04 10:17:44;;;;;;;25.10;15.48;;;;;;;14.02;100.00;99589.13;5092681;28;20052;-45
2024/03/04 10:20:13;;;;;;;27.10;15.13;;;;;;;14.20;100.00;99582.19;5092686;28;20093;-45
2024/03/04 10:22:43;;;;;;;21.10;14.23;;;;;;;14.32;100.00;99582.97;5093621;28;20131;-47
2024/03/04 10:25:14;;;;;;;26.80;15.65;;;;;;;14.09;100.00;99590.31;5095390;28;20142;-47
2024/03/04 10:27:44;;;;;;;23.77;14.93;;;;;;;14.23;100.00;99587.28;5093623;28;20048;-45
2024/03/04 10:30:15;;;;;;;24.60;15.15;;;;;;;14.18;100.00;99591.31;5092493;28;20055;-52
2024/03/04 10:32:46;;;;;;;23.08;14.80;;;;;;;14.43;100.00;99577.50;5092197;28;20114;-46
2024/03/04 10:35:16;;;;;;;26.20;15.38;;;;;;;14.43;100.00;99576.66;5092330;28;20052;-48
2024/03/04 10:37:46;;;;;;;28.05;16.15;;;;;;;14.54;100.00;99568.56;5092258;28;20048;-45
2024/03/04 10:40:19;;;;;;;22.27;15.38;;;;;;;14.50;100.00;99564.44;5092884;28;20090;-46
2024/03/04 10:42:48;;;;;;;21.92;15.52;;;;;;;14.50;100.00;99562.63;5092384;28;20048;-46
2024/03/04 10:45:16;;;;;;;26.23;15.90;;;;;;;14.78;100.00;99554.81;5092494;28;20052;-45
2024/03/04 10:47:45;;;;;;;24.35;15.00;;;;;;;14.89;100.00;99555.56;5092563;28;20059;-46
2024/03/04 10:50:15;;;;;;;24.75;15.57;;;;;;;15.09;100.00;99548.41;5092700;28;20055;-47
2024/03/04 10:52:44;;;;;;;22.23;15.23;;;;;;;15.08;100.00;99545.88;5092168;28;20109;-45
2024/03/04 10:55:15;;;;;;;26.98;15.77;;;;;;;14.98;100.00;99542.31;5091954;28;20047;-45
2024/03/04 10:57:44;;;;;;;27.17;15.38;;;;;;;14.71;100.00;99548.28;5092589;28;20449;-45
2024/03/04 11:00:25;;;;;;;25.65;15.25;;;;;;;15.02;100.00;99543.72;5092567;28;20052;-47
2024/03/04 11:03:04;;;;;;;27.65;15.70;;;;;;;15.04;100.00;99539.91;5092137;28;20048;-46
2024/03/04 11:05:34;;;;;;;27.05;15.63;;;;;;;15.05;100.00;99541.59;5089567;28;20075;-46
2024/03/04 11:08:05;;;;;;;23.92;15.30;;;;;;;15.11;100.00;99535.69;5092024;28;20223;-46
2024/03/04 11:10:42;;;;;;;23.65;14.75;;;;;;;15.17;100.00;99532.47;5089372;28;20127;-45
2024/03/04 11:13:17;;;;;;;21.55;14.50;;;;;;;15.02;100.00;99533.81;5091965;28;20043;-46
2024/03/04 11:15:53;;;;;;;26.35;15.13;;;;;;;14.97;100.00;99536.09;5091569;28;20040;-46
2024/03/04 11:18:37;;;;;;;22.95;14.45;;;;;;;15.11;100.00;99524.94;5091580;28;20382;-47
2024/03/04 11:21:05;;;;;;;;;;;;;;;15.06;100.00;99523.69;5091128;28;20120;-45
2024/03/04 11:23:34;;;;;;;21.88;14.00;;;;;;;15.10;100.00;99531.31;5091027;28;19920;-48